Terminal Aerodrome Forecast
Issued by NWS

Home | Current Version | Previous Version | Text Only | Print | Product List | Glossary On
Versions: 1 2 3 4 5 6 7 8 9 10 11 12 13 14 15 16
000
FTUS43 KDDC 192300
TAFGCK
TAF
KGCK 192320Z 2000/2024 17021G29KT P6SM VCTS SCT080CB BKN150
     FM200100 16012KT P6SM BKN200
     FM201500 20015G23KT P6SM BKN080=

USA.gov is the U.S. government's official web portal to all federal, state and local government web resources and services.